Terminal Aerodrome Forecast
Issued by NWS

Home | Current Version | Previous Version | Text Only | Print | Product List | Glossary On
Versions: 1 2 3 4 5 6 7 8 9 10 11 12 13 14 15 16 17 18 19 20 21 22 23 24 25 26 27 28 29
000
FTUS41 KBUF 210200 AAA
TAFIAG
TAF AMD
KIAG 210221Z 2102/2124 28015KT P6SM SCT025 SCT100
     FM211200 29008KT P6SM VCSH SCT040 BKN060
     FM211600 27012G18KT P6SM BKN050
     FM212200 25012KT P6SM SCT130=

USA.gov is the U.S. government's official web portal to all federal, state and local government web resources and services.